Аэропорт: Бесовец. Петрозаводск

ICAO: ULPB

METAR:
2019/05/25 20:00
ULPB 252000Z AUTO 00000MPS 0450 0350SW FG ///001/// 09/09 Q0998 RMK QBB050 QFE744/0993
METAR:
Информация по данной станции не доступна